sensor_id;sensor_type;location;lat;lon;timestamp;P1;durP1;ratioP1;P2;durP2;ratioP2
72785;SDS011;60902;53.876;10.674;2023-03-26T00:00:06;8.23;;;2.25;;
72785;SDS011;60902;53.876;10.674;2023-03-26T00:00:21;8.00;;;2.38;;
72785;SDS011;60902;53.876;10.674;2023-03-26T00:00:32;7.70;;;2.40;;
72785;SDS011;60902;53.876;10.674;2023-03-26T00:00:43;8.02;;;2.45;;
72785;SDS011;60902;53.876;10.674;2023-03-26T00:00:57;7.93;;;2.40;;
72785;SDS011;60902;53.876;10.674;2023-03-26T00:01:11;6.75;;;2.10;;
72785;SDS011;60902;53.876;10.674;2023-03-26T00:01:24;7.68;;;2.33;;
72785;SDS011;60902;53.876;10.674;2023-03-26T00:01:36;8.75;;;2.58;;
72785;SDS011;60902;53.876;10.674;2023-03-26T00:01:47;7.68;;;2.70;;
72785;SDS011;60902;53.876;10.674;2023-03-26T00:02:00;7.18;;;2.40;;
72785;SDS011;60902;53.876;10.674;2023-03-26T00:02:11;7.18;;;2.40;;
72785;SDS011;60902;53.876;10.674;2023-03-26T00:02:22;8.20;;;2.65;;
72785;SDS011;60902;53.876;10.674;2023-03-26T00:02:34;8.23;;;2.80;;
72785;SDS011;60902;53.876;10.674;2023-03-26T00:02:48;8.65;;;2.95;;
72785;SDS011;60902;53.876;10.674;2023-03-26T00:02:59;8.70;;;2.88;;
72785;SDS011;60902;53.876;10.674;2023-03-26T00:03:10;8.27;;;2.83;;
72785;SDS011;60902;53.876;10.674;2023-03-26T00:03:22;9.55;;;2.80;;
72785;SDS011;60902;53.876;10.674;2023-03-26T00:03:33;10.93;;;2.90;;
72785;SDS011;60902;53.876;10.674;2023-03-26T00:03:46;10.23;;;2.63;;
72785;SDS011;60902;53.876;10.674;2023-03-26T00:04:03;9.75;;;2.67;;
72785;SDS011;60902;53.876;10.674;2023-03-26T00:04:16;9.68;;;2.70;;
72785;SDS011;60902;53.876;10.674;2023-03-26T00:04:28;8.05;;;2.38;;
72785;SDS011;60902;53.876;10.674;2023-03-26T00:04:42;6.82;;;2.35;;
72785;SDS011;60902;53.876;10.674;2023-03-26T00:04:55;7.50;;;2.58;;
72785;SDS011;60902;53.876;10.674;2023-03-26T00:05:07;8.27;;;2.60;;
72785;SDS011;60902;53.876;10.674;2023-03-26T00:05:20;9.10;;;2.40;;
72785;SDS011;60902;53.876;10.674;2023-03-26T00:05:31;9.18;;;2.38;;
72785;SDS011;60902;53.876;10.674;2023-03-26T00:05:42;8.48;;;2.38;;
72785;SDS011;60902;53.876;10.674;2023-03-26T00:06:00;8.05;;;2.25;;
72785;SDS011;60902;53.876;10.674;2023-03-26T00:06:13;8.68;;;2.10;;
72785;SDS011;60902;53.876;10.674;2023-03-26T00:06:27;9.60;;;2.70;;
72785;SDS011;60902;53.876;10.674;2023-03-26T00:06:39;9.60;;;2.97;;
72785;SDS011;60902;53.876;10.674;2023-03-26T00:06:50;7.60;;;2.58;;
72785;SDS011;60902;53.876;10.674;2023-03-26T00:07:03;7.22;;;2.42;;
72785;SDS011;60902;53.876;10.674;2023-03-26T00:07:14;7.30;;;2.38;;
72785;SDS011;60902;53.876;10.674;2023-03-26T00:07:26;7.78;;;2.47;;
72785;SDS011;60902;53.876;10.674;2023-03-26T00:07:39;7.90;;;2.42;;
72785;SDS011;60902;53.876;10.674;2023-03-26T00:07:51;7.43;;;2.45;;
72785;SDS011;60902;53.876;10.674;2023-03-26T00:08:02;7.20;;;2.38;;
72785;SDS011;60902;53.876;10.674;2023-03-26T00:08:14;6.82;;;2.35;;
72785;SDS011;60902;53.876;10.674;2023-03-26T00:08:28;8.05;;;2.15;;
72785;SDS011;60902;53.876;10.674;2023-03-26T00:08:41;8.30;;;2.17;;
72785;SDS011;60902;53.876;10.674;2023-03-26T00:08:55;7.32;;;2.28;;
72785;SDS011;60902;53.876;10.674;2023-03-26T00:09:08;7.28;;;2.67;;
72785;SDS011;60902;53.876;10.674;2023-03-26T00:09:22;8.05;;;3.05;;
72785;SDS011;60902;53.876;10.674;2023-03-26T00:09:33;7.90;;;2.83;;
72785;SDS011;60902;53.876;10.674;2023-03-26T00:09:44;7.45;;;2.17;;
72785;SDS011;60902;53.876;10.674;2023-03-26T00:09:55;7.07;;;1.93;;
72785;SDS011;60902;53.876;10.674;2023-03-26T00:10:08;6.90;;;1.85;;
72785;SDS011;60902;53.876;10.674;2023-03-26T00:10:20;7.13;;;2.00;;
72785;SDS011;60902;53.876;10.674;2023-03-26T00:10:32;7.80;;;2.22;;
72785;SDS011;60902;53.876;10.674;2023-03-26T00:10:43;8.10;;;2.22;;
72785;SDS011;60902;53.876;10.674;2023-03-26T00:10:54;8.10;;;2.28;;
72785;SDS011;60902;53.876;10.674;2023-03-26T00:11:06;8.30;;;2.55;;
72785;SDS011;60902;53.876;10.674;2023-03-26T00:11:19;8.18;;;2.60;;
72785;SDS011;60902;53.876;10.674;2023-03-26T00:11:31;8.27;;;2.42;;
72785;SDS011;60902;53.876;10.674;2023-03-26T00:11:43;8.18;;;2.38;;
72785;SDS011;60902;53.876;10.674;2023-03-26T00:11:55;9.27;;;2.47;;
72785;SDS011;60902;53.876;10.674;2023-03-26T00:12:07;8.23;;;2.38;;
72785;SDS011;60902;53.876;10.674;2023-03-26T00:12:19;8.07;;;2.25;;
72785;SDS011;60902;53.876;10.674;2023-03-26T00:12:30;6.88;;;2.40;;
72785;SDS011;60902;53.876;10.674;2023-03-26T00:12:41;7.20;;;2.50;;
72785;SDS011;60902;53.876;10.674;2023-03-26T00:12:53;7.40;;;2.38;;
72785;SDS011;60902;53.876;10.674;2023-03-26T00:13:05;7.45;;;2.88;;
72785;SDS011;60902;53.876;10.674;2023-03-26T00:13:17;8.48;;;2.80;;
72785;SDS011;60902;53.876;10.674;2023-03-26T00:13:30;8.13;;;2.17;;
72785;SDS011;60902;53.876;10.674;2023-03-26T00:13:44;7.70;;;2.25;;
72785;SDS011;60902;53.876;10.674;2023-03-26T00:13:58;8.52;;;2.33;;
72785;SDS011;60902;53.876;10.674;2023-03-26T00:14:09;8.85;;;2.30;;
72785;SDS011;60902;53.876;10.674;2023-03-26T00:14:22;8.02;;;2.20;;
72785;SDS011;60902;53.876;10.674;2023-03-26T00:14:34;7.90;;;2.08;;
72785;SDS011;60902;53.876;10.674;2023-03-26T00:14:45;8.23;;;2.30;;
72785;SDS011;60902;53.876;10.674;2023-03-26T00:14:57;8.25;;;2.30;;
72785;SDS011;60902;53.876;10.674;2023-03-26T00:15:11;8.15;;;2.40;;
72785;SDS011;60902;53.876;10.674;2023-03-26T00:15:23;7.93;;;2.20;;
72785;SDS011;60902;53.876;10.674;2023-03-26T00:15:34;8.00;;;2.17;;
72785;SDS011;60902;53.876;10.674;2023-03-26T00:15:46;7.10;;;2.35;;
72785;SDS011;60902;53.876;10.674;2023-03-26T00:15:57;7.60;;;2.63;;
72785;SDS011;60902;53.876;10.674;2023-03-26T00:16:10;7.53;;;2.80;;
72785;SDS011;60902;53.876;10.674;2023-03-26T00:16:29;8.63;;;2.53;;
72785;SDS011;60902;53.876;10.674;2023-03-26T00:16:42;9.50;;;2.40;;
72785;SDS011;60902;53.876;10.674;2023-03-26T00:16:53;9.25;;;2.40;;
72785;SDS011;60902;53.876;10.674;2023-03-26T00:17:06;9.20;;;2.38;;
72785;SDS011;60902;53.876;10.674;2023-03-26T00:17:17;8.75;;;2.47;;
72785;SDS011;60902;53.876;10.674;2023-03-26T00:17:28;8.45;;;2.42;;
72785;SDS011;60902;53.876;10.674;2023-03-26T00:17:40;9.20;;;2.65;;
72785;SDS011;60902;53.876;10.674;2023-03-26T00:17:52;8.90;;;2.47;;
72785;SDS011;60902;53.876;10.674;2023-03-26T00:18:05;7.82;;;2.13;;
72785;SDS011;60902;53.876;10.674;2023-03-26T00:18:21;7.05;;;1.95;;
72785;SDS011;60902;53.876;10.674;2023-03-26T00:18:39;8.73;;;2.50;;
72785;SDS011;60902;53.876;10.674;2023-03-26T00:18:51;9.57;;;2.50;;
72785;SDS011;60902;53.876;10.674;2023-03-26T00:19:03;8.43;;;2.40;;
72785;SDS011;60902;53.876;10.674;2023-03-26T00:19:15;7.70;;;2.30;;
72785;SDS011;60902;53.876;10.674;2023-03-26T00:19:29;7.88;;;2.30;;
72785;SDS011;60902;53.876;10.674;2023-03-26T00:19:44;7.38;;;2.42;;
72785;SDS011;60902;53.876;10.674;2023-03-26T00:19:55;6.45;;;2.38;;
72785;SDS011;60902;53.876;10.674;2023-03-26T00:20:08;7.60;;;2.33;;
72785;SDS011;60902;53.876;10.674;2023-03-26T00:20:23;7.82;;;2.28;;
72785;SDS011;60902;53.876;10.674;2023-03-26T00:20:35;8.68;;;2.28;;
72785;SDS011;60902;53.876;10.674;2023-03-26T00:20:47;8.27;;;2.58;;
72785;SDS011;60902;53.876;10.674;2023-03-26T00:20:58;8.50;;;2.53;;
72785;SDS011;60902;53.876;10.674;2023-03-26T00:21:12;8.43;;;2.22;;
72785;SDS011;60902;53.876;10.674;2023-03-26T00:21:24;8.60;;;2.10;;
72785;SDS011;60902;53.876;10.674;2023-03-26T00:21:38;8.30;;;2.10;;
72785;SDS011;60902;53.876;10.674;2023-03-26T00:21:50;7.30;;;2.10;;
72785;SDS011;60902;53.876;10.674;2023-03-26T00:22:03;7.32;;;2.30;;
72785;SDS011;60902;53.876;10.674;2023-03-26T00:22:14;7.40;;;2.42;;
72785;SDS011;60902;53.876;10.674;2023-03-26T00:22:26;8.57;;;2.88;;
72785;SDS011;60902;53.876;10.674;2023-03-26T00:22:40;8.88;;;2.80;;
72785;SDS011;60902;53.876;10.674;2023-03-26T00:22:51;8.35;;;2.72;;
72785;SDS011;60902;53.876;10.674;2023-03-26T00:23:02;7.50;;;2.60;;
72785;SDS011;60902;53.876;10.674;2023-03-26T00:23:17;8.45;;;2.33;;
72785;SDS011;60902;53.876;10.674;2023-03-26T00:23:28;9.48;;;2.25;;
72785;SDS011;60902;53.876;10.674;2023-03-26T00:23:40;9.07;;;2.28;;
72785;SDS011;60902;53.876;10.674;2023-03-26T00:23:53;8.13;;;2.20;;
72785;SDS011;60902;53.876;10.674;2023-03-26T00:24:05;7.35;;;2.05;;
72785;SDS011;60902;53.876;10.674;2023-03-26T00:24:20;7.90;;;1.97;;
72785;SDS011;60902;53.876;10.674;2023-03-26T00:24:39;7.60;;;2.00;;
72785;SDS011;60902;53.876;10.674;2023-03-26T00:24:50;7.53;;;2.22;;
72785;SDS011;60902;53.876;10.674;2023-03-26T00:25:01;8.25;;;2.28;;
72785;SDS011;60902;53.876;10.674;2023-03-26T00:25:12;8.68;;;2.33;;
72785;SDS011;60902;53.876;10.674;2023-03-26T00:25:25;8.10;;;2.00;;
72785;SDS011;60902;53.876;10.674;2023-03-26T00:25:38;7.90;;;2.00;;
72785;SDS011;60902;53.876;10.674;2023-03-26T00:25:51;7.18;;;2.25;;
72785;SDS011;60902;53.876;10.674;2023-03-26T00:26:02;7.95;;;2.28;;
72785;SDS011;60902;53.876;10.674;2023-03-26T00:26:14;7.93;;;2.25;;
72785;SDS011;60902;53.876;10.674;2023-03-26T00:26:26;7.68;;;2.13;;
72785;SDS011;60902;53.876;10.674;2023-03-26T00:26:40;7.15;;;1.98;;
72785;SDS011;60902;53.876;10.674;2023-03-26T00:26:54;7.28;;;2.20;;
72785;SDS011;60902;53.876;10.674;2023-03-26T00:27:05;6.65;;;2.33;;
72785;SDS011;60902;53.876;10.674;2023-03-26T00:27:19;7.15;;;2.17;;
72785;SDS011;60902;53.876;10.674;2023-03-26T00:27:30;8.65;;;2.33;;
72785;SDS011;60902;53.876;10.674;2023-03-26T00:27:42;8.00;;;2.30;;
72785;SDS011;60902;53.876;10.674;2023-03-26T00:27:55;7.53;;;2.40;;
72785;SDS011;60902;53.876;10.674;2023-03-26T00:28:09;6.88;;;2.50;;
72785;SDS011;60902;53.876;10.674;2023-03-26T00:28:20;8.02;;;2.53;;
72785;SDS011;60902;53.876;10.674;2023-03-26T00:28:31;8.18;;;2.42;;
72785;SDS011;60902;53.876;10.674;2023-03-26T00:28:44;7.93;;;2.20;;
72785;SDS011;60902;53.876;10.674;2023-03-26T00:28:55;6.45;;;2.00;;
72785;SDS011;60902;53.876;10.674;2023-03-26T00:29:07;7.05;;;1.92;;
72785;SDS011;60902;53.876;10.674;2023-03-26T00:29:18;7.53;;;2.13;;
72785;SDS011;60902;53.876;10.674;2023-03-26T00:29:31;8.10;;;2.45;;
72785;SDS011;60902;53.876;10.674;2023-03-26T00:29:44;8.02;;;2.40;;
72785;SDS011;60902;53.876;10.674;2023-03-26T00:29:57;7.55;;;2.42;;
72785;SDS011;60902;53.876;10.674;2023-03-26T00:30:10;7.18;;;2.20;;
72785;SDS011;60902;53.876;10.674;2023-03-26T00:30:21;6.95;;;2.20;;
72785;SDS011;60902;53.876;10.674;2023-03-26T00:30:32;6.63;;;2.20;;
72785;SDS011;60902;53.876;10.674;2023-03-26T00:30:44;7.28;;;2.13;;
72785;SDS011;60902;53.876;10.674;2023-03-26T00:30:58;7.57;;;2.08;;
72785;SDS011;60902;53.876;10.674;2023-03-26T00:31:12;6.93;;;2.10;;
72785;SDS011;60902;53.876;10.674;2023-03-26T00:31:24;6.23;;;2.10;;
72785;SDS011;60902;53.876;10.674;2023-03-26T00:31:36;6.70;;;2.20;;
72785;SDS011;60902;53.876;10.674;2023-03-26T00:31:49;6.85;;;2.35;;
72785;SDS011;60902;53.876;10.674;2023-03-26T00:32:00;6.95;;;2.45;;
72785;SDS011;60902;53.876;10.674;2023-03-26T00:32:13;7.32;;;2.38;;
72785;SDS011;60902;53.876;10.674;2023-03-26T00:32:24;7.72;;;2.25;;
72785;SDS011;60902;53.876;10.674;2023-03-26T00:32:37;8.10;;;2.05;;
72785;SDS011;60902;53.876;10.674;2023-03-26T00:32:49;8.50;;;2.20;;
72785;SDS011;60902;53.876;10.674;2023-03-26T00:33:01;9.70;;;2.40;;
72785;SDS011;60902;53.876;10.674;2023-03-26T00:33:12;9.02;;;2.20;;
72785;SDS011;60902;53.876;10.674;2023-03-26T00:33:27;7.28;;;2.30;;
72785;SDS011;60902;53.876;10.674;2023-03-26T00:33:38;8.15;;;2.53;;
72785;SDS011;60902;53.876;10.674;2023-03-26T00:33:51;8.13;;;2.55;;
72785;SDS011;60902;53.876;10.674;2023-03-26T00:34:04;7.13;;;2.03;;
72785;SDS011;60902;53.876;10.674;2023-03-26T00:34:15;8.10;;;2.30;;
72785;SDS011;60902;53.876;10.674;2023-03-26T00:34:29;8.60;;;2.40;;
72785;SDS011;60902;53.876;10.674;2023-03-26T00:34:43;7.15;;;2.25;;
72785;SDS011;60902;53.876;10.674;2023-03-26T00:34:55;7.18;;;2.42;;
72785;SDS011;60902;53.876;10.674;2023-03-26T00:35:06;7.38;;;2.40;;
72785;SDS011;60902;53.876;10.674;2023-03-26T00:35:18;8.25;;;2.47;;
72785;SDS011;60902;53.876;10.674;2023-03-26T00:35:29;7.30;;;2.50;;
72785;SDS011;60902;53.876;10.674;2023-03-26T00:35:40;8.03;;;2.43;;
72785;SDS011;60902;53.876;10.674;2023-03-26T00:35:56;7.95;;;2.47;;
72785;SDS011;60902;53.876;10.674;2023-03-26T00:36:10;8.23;;;2.80;;
72785;SDS011;60902;53.876;10.674;2023-03-26T00:36:24;9.00;;;2.80;;
72785;SDS011;60902;53.876;10.674;2023-03-26T00:36:35;8.23;;;2.60;;
72785;SDS011;60902;53.876;10.674;2023-03-26T00:36:49;8.52;;;2.20;;
72785;SDS011;60902;53.876;10.674;2023-03-26T00:37:04;8.70;;;2.10;;
72785;SDS011;60902;53.876;10.674;2023-03-26T00:37:15;7.82;;;2.17;;
72785;SDS011;60902;53.876;10.674;2023-03-26T00:37:27;7.18;;;2.05;;
72785;SDS011;60902;53.876;10.674;2023-03-26T00:37:40;8.13;;;2.10;;
72785;SDS011;60902;53.876;10.674;2023-03-26T00:37:52;8.65;;;2.20;;
72785;SDS011;60902;53.876;10.674;2023-03-26T00:38:03;7.68;;;2.20;;
72785;SDS011;60902;53.876;10.674;2023-03-26T00:38:14;7.20;;;2.13;;
72785;SDS011;60902;53.876;10.674;2023-03-26T00:38:25;7.47;;;2.47;;
72785;SDS011;60902;53.876;10.674;2023-03-26T00:38:37;8.85;;;2.45;;
72785;SDS011;60902;53.876;10.674;2023-03-26T00:38:48;8.75;;;2.42;;
72785;SDS011;60902;53.876;10.674;2023-03-26T00:39:02;8.80;;;2.42;;
72785;SDS011;60902;53.876;10.674;2023-03-26T00:39:15;8.23;;;2.50;;
72785;SDS011;60902;53.876;10.674;2023-03-26T00:39:28;9.48;;;2.50;;
72785;SDS011;60902;53.876;10.674;2023-03-26T00:39:42;7.55;;;2.47;;
72785;SDS011;60902;53.876;10.674;2023-03-26T00:39:58;6.95;;;2.22;;
72785;SDS011;60902;53.876;10.674;2023-03-26T00:40:15;7.10;;;2.33;;
72785;SDS011;60902;53.876;10.674;2023-03-26T00:40:27;7.20;;;2.50;;
72785;SDS011;60902;53.876;10.674;2023-03-26T00:40:46;7.70;;;2.47;;
72785;SDS011;60902;53.876;10.674;2023-03-26T00:40:59;7.70;;;2.65;;
72785;SDS011;60902;53.876;10.674;2023-03-26T00:41:15;7.13;;;2.45;;
72785;SDS011;60902;53.876;10.674;2023-03-26T00:41:31;8.27;;;2.20;;
72785;SDS011;60902;53.876;10.674;2023-03-26T00:41:45;9.82;;;2.80;;
72785;SDS011;60902;53.876;10.674;2023-03-26T00:41:59;10.25;;;2.80;;
72785;SDS011;60902;53.876;10.674;2023-03-26T00:42:15;7.97;;;2.13;;
72785;SDS011;60902;53.876;10.674;2023-03-26T00:42:26;7.50;;;2.20;;
72785;SDS011;60902;53.876;10.674;2023-03-26T00:42:37;8.13;;;2.40;;
72785;SDS011;60902;53.876;10.674;2023-03-26T00:42:49;8.30;;;2.53;;
72785;SDS011;60902;53.876;10.674;2023-03-26T00:43:00;9.93;;;2.63;;
72785;SDS011;60902;53.876;10.674;2023-03-26T00:43:11;9.93;;;2.30;;
72785;SDS011;60902;53.876;10.674;2023-03-26T00:43:29;10.03;;;2.57;;
72785;SDS011;60902;53.876;10.674;2023-03-26T00:43:43;9.13;;;2.70;;
72785;SDS011;60902;53.876;10.674;2023-03-26T00:43:57;8.13;;;2.33;;
72785;SDS011;60902;53.876;10.674;2023-03-26T00:44:09;7.25;;;2.20;;
72785;SDS011;60902;53.876;10.674;2023-03-26T00:44:21;7.05;;;2.28;;
72785;SDS011;60902;53.876;10.674;2023-03-26T00:44:32;8.25;;;2.88;;
72785;SDS011;60902;53.876;10.674;2023-03-26T00:44:43;9.07;;;3.08;;
72785;SDS011;60902;53.876;10.674;2023-03-26T00:44:54;7.90;;;2.90;;
72785;SDS011;60902;53.876;10.674;2023-03-26T00:45:07;7.55;;;2.53;;
72785;SDS011;60902;53.876;10.674;2023-03-26T00:45:18;8.90;;;2.63;;
72785;SDS011;60902;53.876;10.674;2023-03-26T00:45:31;9.23;;;2.65;;
72785;SDS011;60902;53.876;10.674;2023-03-26T00:45:42;8.80;;;2.28;;
72785;SDS011;60902;53.876;10.674;2023-03-26T00:45:55;7.53;;;2.00;;
72785;SDS011;60902;53.876;10.674;2023-03-26T00:46:06;8.45;;;1.95;;
72785;SDS011;60902;53.876;10.674;2023-03-26T00:46:17;8.55;;;1.95;;
72785;SDS011;60902;53.876;10.674;2023-03-26T00:46:29;8.65;;;2.17;;
72785;SDS011;60902;53.876;10.674;2023-03-26T00:46:41;8.02;;;2.20;;
72785;SDS011;60902;53.876;10.674;2023-03-26T00:46:52;7.78;;;2.30;;
72785;SDS011;60902;53.876;10.674;2023-03-26T00:47:04;7.88;;;2.30;;
72785;SDS011;60902;53.876;10.674;2023-03-26T00:47:16;7.90;;;2.50;;
72785;SDS011;60902;53.876;10.674;2023-03-26T00:47:27;7.13;;;2.17;;
72785;SDS011;60902;53.876;10.674;2023-03-26T00:47:38;7.67;;;2.27;;
72785;SDS011;60902;53.876;10.674;2023-03-26T00:47:49;6.93;;;2.27;;
72785;SDS011;60902;53.876;10.674;2023-03-26T00:48:01;7.80;;;2.30;;
72785;SDS011;60902;53.876;10.674;2023-03-26T00:48:12;7.15;;;2.33;;
72785;SDS011;60902;53.876;10.674;2023-03-26T00:48:23;8.27;;;2.22;;
72785;SDS011;60902;53.876;10.674;2023-03-26T00:48:35;7.97;;;2.33;;
72785;SDS011;60902;53.876;10.674;2023-03-26T00:48:48;7.82;;;2.33;;
72785;SDS011;60902;53.876;10.674;2023-03-26T00:48:59;7.80;;;2.25;;
72785;SDS011;60902;53.876;10.674;2023-03-26T00:49:13;7.90;;;2.15;;
72785;SDS011;60902;53.876;10.674;2023-03-26T00:49:24;8.00;;;2.20;;
72785;SDS011;60902;53.876;10.674;2023-03-26T00:49:35;8.30;;;2.35;;
72785;SDS011;60902;53.876;10.674;2023-03-26T00:49:49;8.13;;;2.78;;
72785;SDS011;60902;53.876;10.674;2023-03-26T00:50:00;8.43;;;2.72;;
72785;SDS011;60902;53.876;10.674;2023-03-26T00:50:13;7.50;;;2.38;;
72785;SDS011;60902;53.876;10.674;2023-03-26T00:50:27;7.25;;;2.03;;
72785;SDS011;60902;53.876;10.674;2023-03-26T00:50:38;8.55;;;2.28;;
72785;SDS011;60902;53.876;10.674;2023-03-26T00:50:50;8.82;;;2.35;;
72785;SDS011;60902;53.876;10.674;2023-03-26T00:51:01;9.93;;;2.57;;
72785;SDS011;60902;53.876;10.674;2023-03-26T00:51:13;8.55;;;2.50;;
72785;SDS011;60902;53.876;10.674;2023-03-26T00:51:28;7.00;;;2.42;;
72785;SDS011;60902;53.876;10.674;2023-03-26T00:51:40;7.25;;;2.63;;
72785;SDS011;60902;53.876;10.674;2023-03-26T00:51:51;8.75;;;2.60;;
72785;SDS011;60902;53.876;10.674;2023-03-26T00:52:03;8.55;;;2.40;;
72785;SDS011;60902;53.876;10.674;2023-03-26T00:52:18;7.57;;;2.30;;
72785;SDS011;60902;53.876;10.674;2023-03-26T00:52:29;8.13;;;2.50;;
72785;SDS011;60902;53.876;10.674;2023-03-26T00:52:47;8.32;;;2.40;;
72785;SDS011;60902;53.876;10.674;2023-03-26T00:53:01;8.50;;;2.55;;
72785;SDS011;60902;53.876;10.674;2023-03-26T00:53:13;9.13;;;2.80;;
72785;SDS011;60902;53.876;10.674;2023-03-26T00:53:40;9.45;;;2.53;;
72785;SDS011;60902;53.876;10.674;2023-03-26T00:53:53;8.95;;;2.50;;
72785;SDS011;60902;53.876;10.674;2023-03-26T00:54:05;7.43;;;2.30;;
72785;SDS011;60902;53.876;10.674;2023-03-26T00:54:18;6.55;;;2.20;;
72785;SDS011;60902;53.876;10.674;2023-03-26T00:54:30;7.30;;;2.30;;
72785;SDS011;60902;53.876;10.674;2023-03-26T00:54:41;7.53;;;2.17;;
72785;SDS011;60902;53.876;10.674;2023-03-26T00:54:53;6.85;;;2.13;;
72785;SDS011;60902;53.876;10.674;2023-03-26T00:55:07;6.28;;;2.13;;
72785;SDS011;60902;53.876;10.674;2023-03-26T00:55:20;6.65;;;2.35;;
72785;SDS011;60902;53.876;10.674;2023-03-26T00:55:32;6.95;;;2.17;;
72785;SDS011;60902;53.876;10.674;2023-03-26T00:55:46;7.32;;;2.42;;
72785;SDS011;60902;53.876;10.674;2023-03-26T00:55:59;7.18;;;2.42;;
72785;SDS011;60902;53.876;10.674;2023-03-26T00:56:12;7.90;;;2.35;;
72785;SDS011;60902;53.876;10.674;2023-03-26T00:56:25;7.47;;;2.15;;
72785;SDS011;60902;53.876;10.674;2023-03-26T00:56:36;7.27;;;2.20;;
72785;SDS011;60902;53.876;10.674;2023-03-26T00:56:48;8.82;;;2.35;;
72785;SDS011;60902;53.876;10.674;2023-03-26T00:57:04;7.95;;;2.45;;
72785;SDS011;60902;53.876;10.674;2023-03-26T00:57:15;6.80;;;2.38;;
72785;SDS011;60902;53.876;10.674;2023-03-26T00:57:30;6.30;;;2.42;;
72785;SDS011;60902;53.876;10.674;2023-03-26T00:57:46;8.82;;;2.50;;
72785;SDS011;60902;53.876;10.674;2023-03-26T00:57:57;8.85;;;2.22;;
72785;SDS011;60902;53.876;10.674;2023-03-26T00:58:09;7.90;;;2.10;;
72785;SDS011;60902;53.876;10.674;2023-03-26T00:58:24;8.07;;;2.20;;
72785;SDS011;60902;53.876;10.674;2023-03-26T00:58:35;8.10;;;2.40;;
72785;SDS011;60902;53.876;10.674;2023-03-26T00:58:46;8.73;;;2.53;;
72785;SDS011;60902;53.876;10.674;2023-03-26T00:58:59;9.40;;;2.38;;
72785;SDS011;60902;53.876;10.674;2023-03-26T00:59:25;9.90;;;2.38;;
72785;SDS011;60902;53.876;10.674;2023-03-26T00:59:39;9.02;;;2.50;;
72785;SDS011;60902;53.876;10.674;2023-03-26T00:59:51;8.80;;;2.70;;
72785;SDS011;60902;53.876;10.674;2023-03-26T01:00:04;7.90;;;2.60;;
72785;SDS011;60902;53.876;10.674;2023-03-26T01:00:27;7.30;;;2.22;;
72785;SDS011;60902;53.876;10.674;2023-03-26T01:00:41;6.63;;;2.08;;
72785;SDS011;60902;53.876;10.674;2023-03-26T01:00:56;6.88;;;2.10;;
72785;SDS011;60902;53.876;10.674;2023-03-26T01:01:08;8.27;;;2.58;;
72785;SDS011;60902;53.876;10.674;2023-03-26T01:01:24;8.30;;;2.72;;
72785;SDS011;60902;53.876;10.674;2023-03-26T01:01:39;6.70;;;2.50;;
72785;SDS011;60902;53.876;10.674;2023-03-26T01:01:50;6.78;;;2.50;;
72785;SDS011;60902;53.876;10.674;2023-03-26T01:02:03;8.73;;;2.53;;
72785;SDS011;60902;53.876;10.674;2023-03-26T01:02:18;8.70;;;2.40;;
72785;SDS011;60902;53.876;10.674;2023-03-26T01:02:29;7.25;;;2.17;;
72785;SDS011;60902;53.876;10.674;2023-03-26T01:02:42;7.15;;;2.20;;
72785;SDS011;60902;53.876;10.674;2023-03-26T01:02:54;7.10;;;2.20;;
72785;SDS011;60902;53.876;10.674;2023-03-26T01:03:09;6.95;;;1.95;;
72785;SDS011;60902;53.876;10.674;2023-03-26T01:03:24;6.97;;;2.00;;
72785;SDS011;60902;53.876;10.674;2023-03-26T01:03:38;7.22;;;2.20;;
72785;SDS011;60902;53.876;10.674;2023-03-26T01:03:50;7.07;;;2.20;;
72785;SDS011;60902;53.876;10.674;2023-03-26T01:04:41;9.18;;;2.38;;
72785;SDS011;60902;53.876;10.674;2023-03-26T01:04:56;7.18;;;2.17;;
72785;SDS011;60902;53.876;10.674;2023-03-26T01:05:37;7.03;;;2.08;;
72785;SDS011;60902;53.876;10.674;2023-03-26T01:05:54;7.63;;;2.28;;
72785;SDS011;60902;53.876;10.674;2023-03-26T01:06:08;7.57;;;2.00;;
72785;SDS011;60902;53.876;10.674;2023-03-26T01:06:24;7.53;;;1.95;;
72785;SDS011;60902;53.876;10.674;2023-03-26T01:06:41;7.53;;;2.05;;
72785;SDS011;60902;53.876;10.674;2023-03-26T01:06:54;7.43;;;2.20;;
72785;SDS011;60902;53.876;10.674;2023-03-26T01:07:08;7.80;;;2.22;;
72785;SDS011;60902;53.876;10.674;2023-03-26T01:07:23;7.72;;;2.10;;
72785;SDS011;60902;53.876;10.674;2023-03-26T01:07:38;7.65;;;2.10;;
72785;SDS011;60902;53.876;10.674;2023-03-26T01:07:48;8.23;;;2.33;;
72785;SDS011;60902;53.876;10.674;2023-03-26T01:08:03;9.25;;;2.35;;
72785;SDS011;60902;53.876;10.674;2023-03-26T01:08:26;9.15;;;2.25;;
72785;SDS011;60902;53.876;10.674;2023-03-26T01:08:41;8.50;;;2.30;;
72785;SDS011;60902;53.876;10.674;2023-03-26T01:08:54;8.73;;;2.25;;
72785;SDS011;60902;53.876;10.674;2023-03-26T01:09:11;7.82;;;2.13;;
72785;SDS011;60902;53.876;10.674;2023-03-26T01:09:28;8.00;;;2.38;;
72785;SDS011;60902;53.876;10.674;2023-03-26T01:09:47;8.35;;;2.70;;
72785;SDS011;60902;53.876;10.674;2023-03-26T01:10:00;7.45;;;2.70;;
72785;SDS011;60902;53.876;10.674;2023-03-26T01:10:11;7.53;;;2.30;;
72785;SDS011;60902;53.876;10.674;2023-03-26T01:10:23;7.15;;;2.22;;
72785;SDS011;60902;53.876;10.674;2023-03-26T01:10:37;7.45;;;2.40;;
72785;SDS011;60902;53.876;10.674;2023-03-26T01:10:49;7.45;;;2.30;;
72785;SDS011;60902;53.876;10.674;2023-03-26T01:11:03;7.45;;;2.20;;
72785;SDS011;60902;53.876;10.674;2023-03-26T01:11:23;7.97;;;2.20;;
72785;SDS011;60902;53.876;10.674;2023-03-26T01:11:37;8.00;;;2.13;;
72785;SDS011;60902;53.876;10.674;2023-03-26T01:11:48;7.00;;;2.00;;
72785;SDS011;60902;53.876;10.674;2023-03-26T01:11:59;6.57;;;2.00;;
72785;SDS011;60902;53.876;10.674;2023-03-26T01:12:13;6.95;;;2.40;;
72785;SDS011;60902;53.876;10.674;2023-03-26T01:12:28;8.77;;;2.80;;
72785;SDS011;60902;53.876;10.674;2023-03-26T01:12:42;9.23;;;2.55;;
72785;SDS011;60902;53.876;10.674;2023-03-26T01:12:53;8.25;;;2.40;;
72785;SDS011;60902;53.876;10.674;2023-03-26T01:13:05;8.35;;;2.30;;
72785;SDS011;60902;53.876;10.674;2023-03-26T01:13:18;8.80;;;2.35;;
72785;SDS011;60902;53.876;10.674;2023-03-26T01:13:31;8.43;;;2.30;;
72785;SDS011;60902;53.876;10.674;2023-03-26T01:13:45;7.50;;;2.25;;
72785;SDS011;60902;53.876;10.674;2023-03-26T01:13:58;7.82;;;2.35;;
72785;SDS011;60902;53.876;10.674;2023-03-26T01:14:17;9.10;;;2.20;;
72785;SDS011;60902;53.876;10.674;2023-03-26T01:14:31;8.75;;;2.10;;
72785;SDS011;60902;53.876;10.674;2023-03-26T01:14:43;7.07;;;2.10;;
72785;SDS011;60902;53.876;10.674;2023-03-26T01:14:56;7.65;;;2.10;;
72785;SDS011;60902;53.876;10.674;2023-03-26T01:15:10;8.95;;;2.30;;
72785;SDS011;60902;53.876;10.674;2023-03-26T01:15:22;8.65;;;2.40;;
72785;SDS011;60902;53.876;10.674;2023-03-26T01:15:38;7.20;;;2.10;;
72785;SDS011;60902;53.876;10.674;2023-03-26T01:15:50;7.05;;;2.00;;
72785;SDS011;60902;53.876;10.674;2023-03-26T01:16:04;7.10;;;2.00;;
72785;SDS011;60902;53.876;10.674;2023-03-26T01:16:22;8.65;;;2.20;;
72785;SDS011;60902;53.876;10.674;2023-03-26T01:16:37;8.90;;;2.38;;
72785;SDS011;60902;53.876;10.674;2023-03-26T01:16:51;7.95;;;2.25;;
72785;SDS011;60902;53.876;10.674;2023-03-26T01:17:05;7.22;;;2.30;;
72785;SDS011;60902;53.876;10.674;2023-03-26T01:17:19;7.47;;;2.50;;
72785;SDS011;60902;53.876;10.674;2023-03-26T01:17:31;7.40;;;2.17;;
72785;SDS011;60902;53.876;10.674;2023-03-26T01:17:46;8.40;;;2.38;;
72785;SDS011;60902;53.876;10.674;2023-03-26T01:18:01;9.32;;;2.50;;